createdAt,value
2019-01-25T00:02:24.357Z,52.50
2019-01-25T00:04:53.968Z,48.87
2019-01-25T00:07:23.674Z,44.70
2019-01-25T00:09:58.655Z,45.07
2019-01-25T00:12:24.793Z,47.97
2019-01-25T00:14:54.550Z,39.57
2019-01-25T00:17:24.587Z,48.40
2019-01-25T00:19:54.328Z,41.37
2019-01-25T00:22:24.399Z,41.30
2019-01-25T00:24:54.083Z,44.27
2019-01-25T00:27:23.739Z,44.03
2019-01-25T00:29:53.404Z,50.87
2019-01-25T00:32:23.711Z,36.40
2019-01-25T00:34:53.560Z,36.30
2019-01-25T00:37:23.249Z,40.37
2019-01-25T00:39:53.339Z,44.67
2019-01-25T00:42:23.025Z,43.40
2019-01-25T00:44:52.746Z,43.93
2019-01-25T00:47:22.550Z,46.57
2019-01-25T00:49:52.332Z,49.97
2019-01-25T00:52:22.147Z,53.50
2019-01-25T00:54:51.785Z,47.83
2019-01-25T00:57:21.434Z,46.37
2019-01-25T00:59:51.147Z,47.97
2019-01-25T01:02:20.847Z,43.07
2019-01-25T01:04:50.952Z,56.03
2019-01-25T01:07:20.634Z,50.67
2019-01-25T01:09:50.322Z,56.53
2019-01-25T01:12:20.014Z,47.57
2019-01-25T01:14:49.701Z,52.83
2019-01-25T01:17:19.651Z,52.73
2019-01-25T01:19:49.262Z,50.60
2019-01-25T01:22:18.938Z,53.73
2019-01-25T01:24:48.891Z,50.80
2019-01-25T01:27:18.923Z,52.63
2019-01-25T01:29:48.506Z,55.30
2019-01-25T01:32:18.348Z,55.60
2019-01-25T01:34:47.911Z,46.47
2019-01-25T01:37:17.731Z,47.40
2019-01-25T01:39:47.866Z,48.00
2019-01-25T01:42:18.089Z,50.67
2019-01-25T01:44:47.903Z,49.90
2019-01-25T01:47:17.768Z,53.93
2019-01-25T01:49:47.724Z,48.53
2019-01-25T01:52:17.769Z,45.40
2019-01-25T01:54:47.453Z,48.30
2019-01-25T01:57:17.032Z,42.77
2019-01-25T01:59:47.393Z,46.03
2019-01-25T02:02:17.070Z,47.50
2019-01-25T02:04:47.206Z,48.47
2019-01-25T02:07:17.198Z,51.47
2019-01-25T02:09:46.873Z,48.30
2019-01-25T02:12:16.551Z,47.13
2019-01-25T02:14:46.136Z,53.37
2019-01-25T02:17:15.799Z,54.60
2019-01-25T02:19:45.335Z,46.80
2019-01-25T02:22:14.992Z,47.73
2019-01-25T02:24:44.625Z,58.07
2019-01-25T02:27:14.174Z,48.90
2019-01-25T02:29:44.149Z,46.97
2019-01-25T02:32:14.130Z,56.77
2019-01-25T02:34:43.829Z,49.43
2019-01-25T02:37:13.453Z,50.10
2019-01-25T02:39:43.157Z,55.23
2019-01-25T02:42:12.817Z,50.20
2019-01-25T02:44:43.049Z,52.97
2019-01-25T02:47:12.855Z,56.63
2019-01-25T02:49:42.696Z,57.77
2019-01-25T02:52:12.420Z,55.23
2019-01-25T02:54:41.992Z,52.87
2019-01-25T02:57:11.567Z,58.27
2019-01-25T02:59:41.243Z,53.17
2019-01-25T03:02:10.559Z,52.10
2019-01-25T03:04:41.166Z,58.27
2019-01-25T03:07:11.330Z,52.30
2019-01-25T03:09:40.966Z,58.00
2019-01-25T03:12:10.561Z,55.03
2019-01-25T03:14:40.205Z,54.90
2019-01-25T03:17:10.419Z,53.17
2019-01-25T03:19:40.055Z,61.17
2019-01-25T03:22:09.668Z,51.00
2019-01-25T03:24:39.303Z,52.13
2019-01-25T03:27:08.933Z,53.60
2019-01-25T03:29:38.519Z,57.20
2019-01-25T03:32:08.499Z,54.33
2019-01-25T03:34:38.299Z,47.70
2019-01-25T03:37:08.122Z,56.23
2019-01-25T03:39:37.788Z,60.20
2019-01-25T03:42:07.545Z,50.00
2019-01-25T03:44:37.191Z,56.43
2019-01-25T03:47:07.106Z,44.80
2019-01-25T03:49:36.706Z,53.77
2019-01-25T03:52:06.356Z,57.00
2019-01-25T03:54:35.995Z,49.77
2019-01-25T03:57:05.905Z,46.73
2019-01-25T03:59:35.866Z,51.90
2019-01-25T04:02:06.038Z,46.27
2019-01-25T04:04:35.657Z,46.87
2019-01-25T04:07:05.359Z,46.47
2019-01-25T04:09:35.176Z,43.80
2019-01-25T04:12:05.432Z,47.63
2019-01-25T04:14:35.331Z,46.60
2019-01-25T04:17:05.044Z,54.10
2019-01-25T04:19:34.927Z,45.40
2019-01-25T04:22:04.851Z,49.63
2019-01-25T04:24:34.603Z,53.67
2019-01-25T04:27:04.818Z,46.20
2019-01-25T04:29:34.842Z,45.80
2019-01-25T04:32:04.580Z,50.40
2019-01-25T04:34:34.759Z,45.53
2019-01-25T04:37:05.106Z,42.13
2019-01-25T04:39:34.955Z,50.57
2019-01-25T04:42:04.663Z,42.97
2019-01-25T04:44:34.255Z,49.60
2019-01-25T04:47:03.940Z,42.90
2019-01-25T04:49:36.526Z,47.53
2019-01-25T04:52:12.808Z,46.60
2019-01-25T04:54:42.537Z,43.80
2019-01-25T04:57:12.601Z,48.07
2019-01-25T04:59:42.764Z,52.00
2019-01-25T05:02:13.049Z,44.67
2019-01-25T05:04:43.137Z,41.67
2019-01-25T05:07:12.822Z,46.53
2019-01-25T05:09:43.050Z,49.77
2019-01-25T05:12:13.464Z,44.57
2019-01-25T05:14:43.375Z,41.83
2019-01-25T05:17:13.571Z,41.63
2019-01-25T05:19:43.190Z,44.60
2019-01-25T05:22:12.928Z,46.17
2019-01-25T05:24:43.113Z,44.13
2019-01-25T05:27:14.258Z,44.57
2019-01-25T05:29:56.742Z,46.20
2019-01-25T05:32:26.442Z,42.97
2019-01-25T05:34:56.466Z,40.03
2019-01-25T05:37:26.650Z,41.93
2019-01-25T05:39:56.503Z,43.60
2019-01-25T05:42:27.563Z,42.07
2019-01-25T05:44:57.234Z,41.03
2019-01-25T05:47:27.739Z,42.10
2019-01-25T05:49:57.959Z,39.63
2019-01-25T05:52:27.956Z,44.00
2019-01-25T05:54:58.028Z,48.40
2019-01-25T05:57:27.988Z,42.17
2019-01-25T05:59:58.213Z,43.03
2019-01-25T06:02:28.051Z,44.93
2019-01-25T06:04:57.931Z,38.03
2019-01-25T06:07:28.989Z,42.87
2019-01-25T06:09:58.613Z,49.43
2019-01-25T06:12:28.371Z,40.50
2019-01-25T06:14:58.333Z,43.00
2019-01-25T06:17:28.618Z,35.50
2019-01-25T06:19:58.370Z,37.73
2019-01-25T06:22:28.331Z,36.77
2019-01-25T06:24:57.946Z,42.43
2019-01-25T06:27:27.615Z,37.67
2019-01-25T06:29:57.236Z,37.07
2019-01-25T06:32:27.004Z,39.03
2019-01-25T06:34:56.682Z,38.20
2019-01-25T06:37:26.295Z,37.13
2019-01-25T06:39:55.955Z,38.83
2019-01-25T06:42:25.551Z,39.50
2019-01-25T06:44:55.205Z,37.87
2019-01-25T06:47:25.028Z,34.90
2019-01-25T06:49:54.852Z,35.60
2019-01-25T06:52:24.481Z,37.17
2019-01-25T06:54:54.149Z,32.53
2019-01-25T06:57:33.506Z,39.87
2019-01-25T07:00:03.976Z,38.83
2019-01-25T07:02:37.326Z,37.37
2019-01-25T07:05:08.419Z,45.63
2019-01-25T07:07:39.590Z,35.40
2019-01-25T07:10:13.469Z,37.53
2019-01-25T07:12:43.565Z,36.50
2019-01-25T07:15:15.580Z,39.57
2019-01-25T07:17:46.043Z,34.97
2019-01-25T07:20:16.420Z,38.77
2019-01-25T07:22:46.623Z,38.97
2019-01-25T07:25:17.119Z,36.03
2019-01-25T07:27:47.029Z,39.47
2019-01-25T07:30:17.416Z,40.50
2019-01-25T07:32:47.776Z,40.03
2019-01-25T07:35:17.854Z,36.87
2019-01-25T07:37:48.005Z,45.83
2019-01-25T07:40:18.217Z,39.27
2019-01-25T07:42:48.437Z,41.17
2019-01-25T07:45:18.167Z,38.87
2019-01-25T07:47:48.264Z,37.77
2019-01-25T07:50:18.215Z,36.13
2019-01-25T07:52:48.284Z,33.83
2019-01-25T07:55:18.614Z,36.43
2019-01-25T07:57:49.105Z,36.90
2019-01-25T08:00:19.131Z,36.40
2019-01-25T08:02:49.100Z,37.23
2019-01-25T08:05:19.143Z,38.70
2019-01-25T08:07:49.353Z,36.43
2019-01-25T08:10:19.306Z,38.57
2019-01-25T08:12:49.420Z,36.30
2019-01-25T08:15:20.552Z,37.93
2019-01-25T08:17:50.703Z,37.07
2019-01-25T08:20:20.851Z,35.80
2019-01-25T08:22:51.142Z,36.43
2019-01-25T08:25:21.270Z,37.87
2019-01-25T08:27:51.603Z,32.87
2019-01-25T08:30:21.876Z,30.93
2019-01-25T08:32:52.093Z,31.87
2019-01-25T08:35:22.878Z,34.17
2019-01-25T08:37:52.865Z,34.40
2019-01-25T08:40:22.927Z,36.00
2019-01-25T08:42:53.287Z,34.37
2019-01-25T08:45:23.520Z,32.33
2019-01-25T08:47:53.665Z,36.50
2019-01-25T08:50:24.184Z,35.17
2019-01-25T08:52:54.461Z,34.60
2019-01-25T08:55:24.584Z,27.53
2019-01-25T08:57:54.459Z,31.87
2019-01-25T09:00:24.942Z,29.17
2019-01-25T09:02:55.433Z,31.63
2019-01-25T09:05:26.519Z,32.33
2019-01-25T09:07:56.894Z,33.43
2019-01-25T09:10:27.037Z,29.40
2019-01-25T09:12:56.882Z,28.37
2019-01-25T09:15:28.508Z,30.13
2019-01-25T09:17:58.701Z,32.03
2019-01-25T09:20:29.119Z,26.80
2019-01-25T09:22:59.304Z,29.50
2019-01-25T09:25:29.407Z,30.23
2019-01-25T09:27:59.423Z,23.73
2019-01-25T09:30:29.928Z,27.17
2019-01-25T09:33:00.137Z,27.90
2019-01-25T09:35:30.313Z,25.10
2019-01-25T09:38:00.476Z,24.80
2019-01-25T09:40:30.651Z,26.07
2019-01-25T09:43:00.655Z,28.77
2019-01-25T09:45:30.898Z,21.47
2019-01-25T09:48:00.962Z,25.13
2019-01-25T09:50:30.964Z,23.37
2019-01-25T09:53:01.198Z,23.37
2019-01-25T09:55:31.359Z,22.63
2019-01-25T09:58:03.444Z,21.17
2019-01-25T10:00:39.841Z,23.67
2019-01-25T10:03:09.967Z,22.70
2019-01-25T10:05:40.119Z,29.00
2019-01-25T10:08:10.223Z,19.77
2019-01-25T10:10:40.118Z,18.67
2019-01-25T10:13:10.309Z,18.23
2019-01-25T10:15:41.414Z,21.97
2019-01-25T10:18:11.583Z,18.97
2019-01-25T10:20:41.635Z,17.87
2019-01-25T10:23:11.701Z,17.77
2019-01-25T10:25:41.748Z,20.50
2019-01-25T10:28:11.938Z,21.00
2019-01-25T10:30:41.979Z,22.70
2019-01-25T10:33:12.281Z,21.83
2019-01-25T10:35:42.599Z,20.43
2019-01-25T10:38:12.492Z,18.83
2019-01-25T10:40:42.743Z,19.80
2019-01-25T10:43:12.843Z,18.70
2019-01-25T10:45:43.306Z,19.20
2019-01-25T10:48:13.303Z,19.57
2019-01-25T10:50:43.573Z,17.60
2019-01-25T10:53:13.549Z,20.40
2019-01-25T10:55:43.542Z,18.03
2019-01-25T10:58:13.955Z,16.20
2019-01-25T11:00:43.907Z,15.23
2019-01-25T11:03:14.153Z,17.40
2019-01-25T11:05:44.588Z,16.43
2019-01-25T11:08:14.706Z,18.93
2019-01-25T11:10:45.001Z,15.03
2019-01-25T11:13:14.933Z,19.30
2019-01-25T11:15:45.518Z,19.33
2019-01-25T11:18:15.639Z,16.30
2019-01-25T11:20:45.808Z,16.83
2019-01-25T11:23:15.768Z,15.13
2019-01-25T11:25:45.999Z,18.03
2019-01-25T11:28:16.336Z,17.40
2019-01-25T11:30:46.395Z,19.00
2019-01-25T11:33:16.512Z,15.73
2019-01-25T11:35:46.718Z,17.37
2019-01-25T11:38:16.921Z,18.63
2019-01-25T11:40:47.614Z,17.10
2019-01-25T11:43:18.104Z,18.97
2019-01-25T11:45:48.313Z,20.37
2019-01-25T11:48:18.355Z,16.27
2019-01-25T11:50:48.861Z,17.77
2019-01-25T11:53:19.286Z,17.07
2019-01-25T11:55:49.361Z,17.77
2019-01-25T11:58:19.655Z,15.83
2019-01-25T12:00:50.589Z,15.13
2019-01-25T12:03:20.543Z,17.20
2019-01-25T12:05:50.687Z,14.73
2019-01-25T12:08:21.140Z,15.90
2019-01-25T12:10:51.157Z,15.47
2019-01-25T12:13:21.203Z,16.37
2019-01-25T12:15:51.488Z,17.30
2019-01-25T12:18:21.590Z,14.73
2019-01-25T12:20:51.548Z,16.70
2019-01-25T12:23:21.290Z,14.23
2019-01-25T12:25:51.546Z,17.13
2019-01-25T12:28:22.089Z,14.90
2019-01-25T12:30:52.008Z,16.77
2019-01-25T12:33:21.910Z,14.63
2019-01-25T12:35:52.577Z,16.23
2019-01-25T12:38:22.760Z,18.17
2019-01-25T12:40:52.563Z,15.07
2019-01-25T12:43:24.083Z,16.87
2019-01-25T12:45:54.452Z,14.37
2019-01-25T12:48:24.582Z,19.60
2019-01-25T12:51:08.995Z,16.33
2019-01-25T12:53:38.681Z,15.30
2019-01-25T12:56:09.086Z,18.10
2019-01-25T12:58:39.255Z,14.87
2019-01-25T13:01:09.897Z,19.13
2019-01-25T13:03:40.356Z,17.40
2019-01-25T13:06:10.696Z,17.47
2019-01-25T13:08:40.865Z,21.67
2019-01-25T13:11:14.067Z,16.50
2019-01-25T13:13:44.318Z,13.33
2019-01-25T13:16:14.456Z,13.93
2019-01-25T13:18:44.835Z,16.83
2019-01-25T13:21:14.683Z,16.30
2019-01-25T13:23:44.640Z,16.67
2019-01-25T13:26:14.925Z,18.17
2019-01-25T13:28:45.075Z,17.43
2019-01-25T13:31:15.083Z,17.70
2019-01-25T13:33:45.177Z,20.50
2019-01-25T13:36:15.493Z,20.30
2019-01-25T13:38:45.623Z,17.63
2019-01-25T13:41:15.490Z,17.80
2019-01-25T13:43:45.722Z,19.43
2019-01-25T13:46:15.716Z,20.20
2019-01-25T13:48:45.859Z,19.03
2019-01-25T13:51:16.180Z,17.33
2019-01-25T13:53:46.026Z,18.43
2019-01-25T13:56:16.367Z,20.90
2019-01-25T13:58:46.524Z,21.37
2019-01-25T14:01:16.743Z,18.57
2019-01-25T14:03:46.680Z,18.37
2019-01-25T14:06:18.476Z,19.17
2019-01-25T14:08:49.119Z,18.07
2019-01-25T14:11:19.111Z,16.90
2019-01-25T14:13:49.312Z,18.03
2019-01-25T14:16:19.220Z,17.67
2019-01-25T14:18:52.154Z,18.20
2019-01-25T14:21:22.810Z,19.83
2019-01-25T14:23:52.812Z,17.30
2019-01-25T14:26:22.794Z,18.13
2019-01-25T14:28:52.792Z,15.67
2019-01-25T14:31:22.980Z,18.80
2019-01-25T14:33:53.256Z,17.77
2019-01-25T14:36:23.650Z,15.27
2019-01-25T14:38:53.991Z,17.37
2019-01-25T14:41:24.921Z,15.67
2019-01-25T14:43:56.574Z,15.13
2019-01-25T14:46:27.021Z,15.43
2019-01-25T14:48:57.066Z,18.17
2019-01-25T14:51:29.031Z,15.03
2019-01-25T14:53:59.511Z,17.13
2019-01-25T14:56:29.612Z,18.73
2019-01-25T14:59:00.562Z,18.80
2019-01-25T15:01:30.630Z,18.77
2019-01-25T15:04:00.814Z,17.03
2019-01-25T15:06:30.602Z,19.30
2019-01-25T15:09:01.039Z,17.87
2019-01-25T15:11:30.966Z,17.17
2019-01-25T15:14:02.472Z,16.63
2019-01-25T15:16:32.637Z,18.20
2019-01-25T15:19:02.923Z,19.60
2019-01-25T15:21:33.061Z,22.10
2019-01-25T15:24:02.820Z,20.93
2019-01-25T15:26:33.142Z,19.97
2019-01-25T15:29:02.791Z,18.73
2019-01-25T15:31:33.495Z,18.47
2019-01-25T15:34:03.327Z,18.33
2019-01-25T15:36:33.453Z,17.63
2019-01-25T15:39:05.174Z,23.23
2019-01-25T15:41:35.255Z,15.90
2019-01-25T15:44:10.029Z,21.63
2019-01-25T15:46:36.400Z,19.27
2019-01-25T15:49:06.267Z,18.10
2019-01-25T15:51:35.941Z,20.10
2019-01-25T15:54:05.798Z,19.73
2019-01-25T15:56:35.566Z,19.23
2019-01-25T15:59:05.275Z,23.13
2019-01-25T16:01:34.964Z,24.90
2019-01-25T16:04:04.828Z,20.77
2019-01-25T16:06:34.496Z,21.03
2019-01-25T16:09:05.593Z,19.83
2019-01-25T16:11:35.243Z,26.07
2019-01-25T16:14:04.877Z,27.33
2019-01-25T16:16:35.616Z,21.30
2019-01-25T16:19:05.507Z,23.37
2019-01-25T16:21:35.136Z,25.77
2019-01-25T16:24:05.163Z,22.03
2019-01-25T16:26:35.134Z,23.50
2019-01-25T16:29:04.778Z,28.77
2019-01-25T16:31:35.100Z,25.20
2019-01-25T16:34:05.006Z,20.83
2019-01-25T16:36:34.687Z,22.43
2019-01-25T16:39:07.099Z,26.93
2019-01-25T16:41:36.880Z,21.80
2019-01-25T16:44:07.692Z,24.43
2019-01-25T16:46:37.725Z,21.60
2019-01-25T16:49:26.567Z,22.20
2019-01-25T16:51:56.513Z,21.13
2019-01-25T16:54:26.151Z,23.70
2019-01-25T16:56:55.848Z,15.03
2019-01-25T16:59:25.453Z,18.97
2019-01-25T17:01:55.076Z,17.77
2019-01-25T17:04:25.204Z,17.97
2019-01-25T17:06:55.271Z,18.40
2019-01-25T17:09:24.938Z,15.10
2019-01-25T17:11:54.750Z,15.13
2019-01-25T17:14:24.731Z,13.63
2019-01-25T17:16:54.838Z,15.27
2019-01-25T17:19:26.221Z,17.50
2019-01-25T17:21:55.932Z,18.43
2019-01-25T17:24:25.525Z,20.63
2019-01-25T17:26:55.376Z,19.97
2019-01-25T17:29:25.220Z,20.17
2019-01-25T17:31:55.965Z,17.30
2019-01-25T17:34:25.807Z,20.30
2019-01-25T17:36:58.089Z,16.57
2019-01-25T17:39:27.696Z,16.13
2019-01-25T17:41:57.515Z,16.00
2019-01-25T17:44:27.703Z,15.87
2019-01-25T17:46:57.394Z,11.53
2019-01-25T17:49:27.035Z,12.63
2019-01-25T17:51:56.665Z,13.90
2019-01-25T17:54:26.377Z,13.27
2019-01-25T17:56:56.534Z,13.67
2019-01-25T17:59:26.397Z,12.50
2019-01-25T18:01:56.026Z,10.80
2019-01-25T18:04:25.758Z,12.67
2019-01-25T18:06:55.710Z,10.10
2019-01-25T18:09:25.426Z,9.60
2019-01-25T18:11:55.736Z,8.60
2019-01-25T18:14:25.740Z,10.80
2019-01-25T18:16:55.416Z,9.80
2019-01-25T18:19:25.598Z,11.33
2019-01-25T18:21:55.583Z,12.47
2019-01-25T18:24:25.234Z,12.53
2019-01-25T18:26:55.240Z,10.93
2019-01-25T18:29:36.135Z,16.07
2019-01-25T18:32:06.634Z,10.70
2019-01-25T18:34:39.029Z,10.43
2019-01-25T18:37:08.922Z,11.83
2019-01-25T18:39:38.548Z,7.97
2019-01-25T18:42:08.368Z,9.50
2019-01-25T18:44:37.939Z,9.20
2019-01-25T18:47:07.623Z,9.27
2019-01-25T18:49:38.581Z,7.73
2019-01-25T18:52:09.373Z,9.63
2019-01-25T18:54:39.111Z,9.37
2019-01-25T18:57:09.997Z,8.87
2019-01-25T18:59:39.686Z,12.37
2019-01-25T19:02:10.094Z,11.43
2019-01-25T19:04:40.848Z,8.20
2019-01-25T19:07:10.879Z,10.27
2019-01-25T19:09:40.597Z,10.50
2019-01-25T19:12:11.684Z,9.27
2019-01-25T19:14:41.293Z,9.03
2019-01-25T19:17:10.991Z,8.60
2019-01-25T19:19:40.760Z,9.40
2019-01-25T19:22:10.839Z,11.87
2019-01-25T19:24:40.827Z,7.50
2019-01-25T19:27:10.889Z,8.80
2019-01-25T19:29:40.733Z,9.70
2019-01-25T19:32:10.837Z,9.00
2019-01-25T19:34:40.477Z,8.30
2019-01-25T19:37:10.349Z,7.77
2019-01-25T19:39:40.138Z,8.67
2019-01-25T19:42:09.861Z,7.77
2019-01-25T19:44:39.484Z,8.83
2019-01-25T19:47:09.133Z,9.63
2019-01-25T19:49:38.853Z,7.93
2019-01-25T19:52:09.109Z,8.73
2019-01-25T19:54:39.392Z,10.23
2019-01-25T19:57:09.219Z,6.60
2019-01-25T19:59:38.857Z,8.77
2019-01-25T20:02:08.717Z,7.77
2019-01-25T20:04:38.620Z,8.57
2019-01-25T20:07:08.252Z,7.80
2019-01-25T20:09:38.221Z,7.97
2019-01-25T20:12:07.951Z,8.10
2019-01-25T20:14:37.628Z,8.23
2019-01-25T20:17:07.408Z,8.10
2019-01-25T20:19:39.114Z,6.83
2019-01-25T20:22:09.453Z,6.23
2019-01-25T20:24:39.396Z,7.37
2019-01-25T20:27:09.064Z,5.60
2019-01-25T20:29:39.466Z,9.17
2019-01-25T20:32:09.193Z,7.13
2019-01-25T20:34:39.427Z,7.67
2019-01-25T20:37:10.223Z,7.23
2019-01-25T20:39:39.914Z,7.93
2019-01-25T20:42:09.827Z,7.43
2019-01-25T20:44:39.987Z,7.33
2019-01-25T20:47:10.412Z,8.97
2019-01-25T20:49:40.279Z,5.00
2019-01-25T20:52:10.019Z,6.07
2019-01-25T20:54:40.279Z,6.57
2019-01-25T20:57:10.432Z,6.87
2019-01-25T20:59:40.047Z,6.57
2019-01-25T21:02:10.477Z,6.73
2019-01-25T21:04:40.362Z,7.03
2019-01-25T21:07:10.034Z,8.10
2019-01-25T21:09:39.752Z,8.10
2019-01-25T21:12:09.488Z,8.50
2019-01-25T21:14:39.306Z,8.50
2019-01-25T21:17:08.936Z,8.33
2019-01-25T21:19:39.342Z,6.17
2019-01-25T21:22:11.717Z,11.43
2019-01-25T21:24:41.735Z,11.57
2019-01-25T21:27:11.597Z,9.93
2019-01-25T21:29:41.437Z,9.47
2019-01-25T21:32:11.489Z,8.77
2019-01-25T21:34:42.667Z,8.00
2019-01-25T21:37:13.059Z,13.87
2019-01-25T21:39:43.263Z,8.13
2019-01-25T21:42:13.048Z,7.87
2019-01-25T21:44:42.681Z,10.63
2019-01-25T21:47:12.496Z,7.27
2019-01-25T21:49:42.636Z,8.90
2019-01-25T21:52:14.030Z,8.33
2019-01-25T21:54:43.833Z,10.50
2019-01-25T21:57:13.698Z,10.73
2019-01-25T21:59:45.496Z,10.87
2019-01-25T22:02:15.371Z,10.77
2019-01-25T22:04:45.083Z,10.23
2019-01-25T22:07:14.869Z,12.60
2019-01-25T22:09:44.858Z,12.57
2019-01-25T22:12:14.805Z,9.93
2019-01-25T22:14:44.433Z,11.20
2019-01-25T22:17:14.394Z,11.70
2019-01-25T22:19:44.078Z,9.30
2019-01-25T22:22:13.695Z,10.97
2019-01-25T22:24:43.511Z,14.20
2019-01-25T22:27:16.441Z,12.00
2019-01-25T22:29:46.766Z,12.97
2019-01-25T22:32:16.392Z,11.47
2019-01-25T22:34:46.172Z,11.37
2019-01-25T22:37:16.165Z,10.00
2019-01-25T22:39:46.425Z,12.70
2019-01-25T22:42:19.264Z,10.57
2019-01-25T22:44:50.576Z,10.63
2019-01-25T22:47:20.941Z,13.43
2019-01-25T22:49:50.662Z,10.33
2019-01-25T22:52:21.814Z,9.90
2019-01-25T22:54:51.470Z,12.07
2019-01-25T22:57:21.741Z,9.57
2019-01-25T22:59:52.254Z,12.33
2019-01-25T23:02:22.213Z,7.13
2019-01-25T23:04:59.734Z,8.27
2019-01-25T23:07:31.454Z,10.60
2019-01-25T23:10:11.674Z,11.10
2019-01-25T23:12:41.801Z,9.63
2019-01-25T23:15:14.618Z,10.23
2019-01-25T23:17:44.839Z,9.30
2019-01-25T23:20:15.153Z,9.20
2019-01-25T23:22:45.008Z,10.43
2019-01-25T23:25:14.963Z,8.30
2019-01-25T23:27:44.645Z,11.93
2019-01-25T23:30:17.135Z,11.80
2019-01-25T23:32:46.775Z,8.60
2019-01-25T23:35:16.339Z,11.47
2019-01-25T23:37:46.099Z,7.90
2019-01-25T23:40:16.697Z,10.17
2019-01-25T23:42:46.382Z,12.90
2019-01-25T23:45:16.559Z,10.87
2019-01-25T23:47:46.473Z,11.90
2019-01-25T23:50:16.199Z,9.83
2019-01-25T23:52:45.990Z,10.27
2019-01-25T23:55:15.893Z,9.27
2019-01-25T23:57:45.691Z,9.03
